createdAt,value
2022-09-13T00:10:44.185Z,98465.87
2022-09-13T00:20:51.655Z,98454.46
2022-09-13T00:31:01.173Z,98459.03
2022-09-13T00:41:10.145Z,98467.16
2022-09-13T00:51:17.889Z,98465.34
2022-09-13T01:01:27.374Z,98454.02
2022-09-13T01:11:38.143Z,98447.35
2022-09-13T01:22:20.374Z,98433.05
2022-09-13T01:32:25.921Z,98431.12
2022-09-13T01:42:39.145Z,98428.82
2022-09-13T01:52:44.472Z,98423.31
2022-09-13T02:02:53.807Z,98412.23
2022-09-13T02:13:01.015Z,98407.31
2022-09-13T02:23:13.559Z,98398.31
2022-09-13T02:33:25.472Z,98385.77
2022-09-13T02:43:31.625Z,98379.16
2022-09-13T02:53:37.091Z,98375.65
2022-09-13T03:03:44.155Z,98374.15
2022-09-13T03:13:56.915Z,98362.22
2022-09-13T03:24:09.353Z,98356.58
2022-09-13T03:34:25.200Z,98362.10
2022-09-13T03:44:35.434Z,98356.05
2022-09-13T03:54:42.667Z,98358.36
2022-09-13T04:04:50.333Z,98358.15
2022-09-13T04:14:57.891Z,98347.20
2022-09-13T04:25:03.856Z,98343.23
2022-09-13T04:35:10.613Z,98341.14
2022-09-13T04:45:18.176Z,98339.19
2022-09-13T04:55:25.144Z,98335.25
2022-09-13T05:05:33.421Z,98337.21
2022-09-13T05:15:40.714Z,98335.79
2022-09-13T05:25:47.376Z,98330.19
2022-09-13T05:35:54.677Z,98331.89
2022-09-13T05:46:02.301Z,98323.53
2022-09-13T05:56:15.876Z,98332.90
2022-09-13T06:06:24.561Z,98341.45
2022-09-13T06:16:31.941Z,98342.39
2022-09-13T06:26:39.180Z,98333.64
2022-09-13T06:46:53.280Z,98313.73
2022-09-13T06:57:03.212Z,98316.27
2022-09-13T07:07:10.464Z,98316.38
2022-09-13T07:17:18.272Z,98316.25
2022-09-13T07:27:25.778Z,98305.94
2022-09-13T07:37:33.011Z,98301.69
2022-09-13T07:47:40.362Z,98292.30
2022-09-13T07:57:47.601Z,98288.01
2022-09-13T08:07:54.793Z,98286.73
2022-09-13T08:18:02.363Z,98280.76
2022-09-13T08:28:09.378Z,98264.23
2022-09-13T08:38:16.580Z,98260.28
2022-09-13T08:48:31.692Z,98257.64
2022-09-13T08:58:49.933Z,98265.31
2022-09-13T09:08:59.995Z,98259.39
2022-09-13T09:19:07.390Z,98254.66
2022-09-13T09:29:20.745Z,98243.27
2022-09-13T09:39:39.286Z,98238.20
2022-09-13T09:50:04.820Z,98230.80
2022-09-13T10:00:14.700Z,98226.70
2022-09-13T10:10:24.602Z,98218.45
2022-09-13T10:20:33.090Z,98205.16
2022-09-13T10:30:43.652Z,98199.89
2022-09-13T10:40:50.821Z,98183.10
2022-09-13T10:51:03.725Z,98172.63
2022-09-13T11:01:40.296Z,98157.30
2022-09-13T11:11:49.502Z,98143.98
2022-09-13T11:21:58.987Z,98132.20
2022-09-13T11:32:07.413Z,98124.06
2022-09-13T11:42:18.158Z,98100.35
2022-09-13T11:52:26.585Z,98088.73
2022-09-13T12:02:38.720Z,98074.42
2022-09-13T12:12:48.440Z,98050.17
2022-09-13T12:33:07.261Z,98058.84
2022-09-13T12:43:32.520Z,98044.89
2022-09-13T12:54:13.856Z,98034.05
2022-09-13T13:04:18.920Z,98019.46
2022-09-13T13:14:44.577Z,98018.69
2022-09-13T13:24:51.788Z,98004.48
2022-09-13T13:35:18.878Z,97995.99
2022-09-13T13:45:26.090Z,97983.96
2022-09-13T13:55:31.759Z,97970.31
2022-09-13T14:05:37.634Z,97967.89
2022-09-13T14:15:51.320Z,97957.00
2022-09-13T14:25:56.563Z,97946.43
2022-09-13T14:36:05.116Z,97944.70
2022-09-13T14:46:16.762Z,97929.30
2022-09-13T14:56:22.225Z,97917.10
2022-09-13T15:06:31.746Z,97913.27
2022-09-13T15:16:48.754Z,97897.47
2022-09-13T15:27:03.464Z,97893.30
2022-09-13T15:37:09.316Z,97892.64
2022-09-13T15:47:16.988Z,97890.83
2022-09-13T15:57:22.461Z,97894.34
2022-09-13T16:07:30.101Z,97887.55
2022-09-13T16:17:36.278Z,97886.70
2022-09-13T16:27:45.028Z,97881.58
2022-09-13T16:37:52.868Z,97876.73
2022-09-13T16:48:00.674Z,97878.32
2022-09-13T16:58:08.170Z,97869.75
2022-09-13T17:08:14.869Z,97862.13
2022-09-13T17:18:22.152Z,97858.55
2022-09-13T17:28:29.344Z,97856.25
2022-09-13T17:38:36.651Z,97857.18
2022-09-13T17:48:44.944Z,97849.02
2022-09-13T17:58:50.088Z,97843.20
2022-09-13T18:08:58.505Z,97843.42
2022-09-13T18:19:06.010Z,97843.52
2022-09-13T18:29:13.902Z,97847.34
2022-09-13T18:39:21.668Z,97837.09
2022-09-13T18:49:29.002Z,97837.16
2022-09-13T18:59:36.276Z,97836.79
2022-09-13T19:09:43.588Z,97833.02
2022-09-13T19:19:51.383Z,97834.15
2022-09-13T19:29:59.391Z,97825.34
2022-09-13T19:40:06.352Z,97817.98
2022-09-13T19:50:13.049Z,97813.27
2022-09-13T20:00:19.914Z,97813.25
2022-09-13T20:10:27.167Z,97812.19
2022-09-13T20:20:37.493Z,97807.19
2022-09-13T20:30:53.239Z,97804.20
2022-09-13T20:41:03.673Z,97802.64
2022-09-13T20:51:12.967Z,97801.12
2022-09-13T21:01:22.817Z,97800.30
2022-09-13T21:11:34.113Z,97792.30
2022-09-13T21:21:43.648Z,97793.45
2022-09-13T21:31:51.290Z,97792.32
2022-09-13T21:41:58.542Z,97796.52
2022-09-13T21:52:03.455Z,97793.00
2022-09-13T22:02:11.885Z,97784.92
2022-09-13T22:12:19.130Z,97780.70
2022-09-13T22:22:26.325Z,97773.85
2022-09-13T22:32:33.689Z,97768.45
2022-09-13T22:42:40.894Z,97758.31
2022-09-13T22:52:48.314Z,97754.71
2022-09-13T23:02:56.244Z,97759.54
2022-09-13T23:13:03.498Z,97764.07
2022-09-13T23:23:10.987Z,97759.70
2022-09-13T23:33:18.495Z,97757.02
2022-09-13T23:43:26.566Z,97753.08
2022-09-13T23:53:34.203Z,97754.66
